Nakhchivan — 9HHK8 — position and weather

sailwx.info

Track history (hours):
 
Tides and Currents Weather Stations Pressure Air Temp Water Temp Dewpoint Dewpoint Depression Visibility Wind Speed Wind Dir Waves Ship Positions

Nakhchivan

Last reported at 2016-Dec-10 01:08 UTC. Time now 2016-Dec-10 08:50 UTC.
Position N 52°07' E 003°23'.

Length 139 m; draft 3.5 m.

Type: Cargo ship. MMSI: 215983000.

Date/timePositionNaut miles runAvg speedWind from/ knotsBaromVisibWave heightAir tempDewpointWater temp
2016-Dec-10 01:08N 52°07' E 003°23'610.1
2016-Dec-10 00:30N 52°01' E 003°23'1010.5
2016-Dec-09 23:33N 51°51' E 003°18'9 9.4
2016-Dec-09 22:33N 51°42' E 003°18'1010.3
2016-Dec-09 21:33N 51°33' E 003°25'9 8.9
2016-Dec-09 20:33N 51°26' E 003°35'7 6.6
2016-Dec-09 19:33N 51°22' E 003°44'4 4.2
2016-Dec-09 18:34N 51°20' E 003°49'1 1.0
2016-Dec-09 17:33N 51°19' E 003°50'6 5.7
2016-Dec-09 16:33N 51°13' E 003°48'8 7.9
2016-Dec-09 15:32N 51°05' E 003°45'0 0.0
2016-Dec-09 12:29N 51°05' E 003°45'0 0.0
2016-Dec-09 11:14N 51°05' E 003°45'0 0.0
2016-Dec-09 10:30N 51°05' E 003°45'0 0.0
2016-Dec-09 09:33N 51°05' E 003°45'0 0.0
2016-Dec-09 07:19N 51°05' E 003°45'0 0.0
2016-Dec-09 06:29N 51°05' E 003°45'0 0.0
2016-Dec-09 02:15N 51°05' E 003°45'0 0.0
2016-Dec-09 01:29N 51°05' E 003°45'0 0.0
2016-Dec-09 00:17N 51°05' E 003°45'0 0.0
2016-Dec-08 23:31N 51°05' E 003°45'0 0.0
2016-Dec-08 21:22N 51°05' E 003°45'0 0.0
2016-Dec-08 20:18N 51°05' E 003°45'0 0.0
2016-Dec-08 19:23N 51°05' E 003°45'0 0.0
2016-Dec-08 18:24N 51°05' E 003°45'0 0.0
2016-Dec-08 17:32N 51°05' E 003°45'0 0.0
2016-Dec-08 16:07N 51°05' E 003°45'1 2.1
2016-Dec-08 15:34N 51°07' E 003°44'8 7.7
2016-Dec-08 14:34N 51°14' E 003°48'6 5.9
2016-Dec-08 13:34N 51°20' E 003°49'0 0.1
2016-Dec-08 12:33N 51°20' E 003°49'5 5.5
2016-Dec-08 11:33N 51°23' E 003°42'7 6.6
2016-Dec-08 10:33N 51°25' E 003°32'7 7.3
2016-Dec-08 09:33N 51°24' E 003°21'9 8.6
2016-Dec-08 08:33N 51°22' E 003°07'8 8.4
2016-Dec-08 07:33N 51°21' E 002°54'8 8.0
2016-Dec-08 06:33N 51°22' E 002°41'4 4.2
2016-Dec-08 05:33N 51°20' E 002°35'0 0.0
2016-Dec-08 04:27N 51°20' E 002°35'0 0.2
2016-Dec-08 03:32N 51°20' E 002°35'0 0.1
2016-Dec-08 02:26N 51°20' E 002°35'0 0.0
2016-Dec-08 01:33N 51°20' E 002°35'0 0.0
2016-Dec-08 00:32N 51°20' E 002°35'0 0.1
2016-Dec-07 23:32N 51°20' E 002°35'0 0.1
2016-Dec-07 22:30N 51°20' E 002°35'0 0.1
2016-Dec-07 21:33N 51°20' E 002°35'0 0.0
2016-Dec-07 20:31N 51°20' E 002°35'0 0.0
2016-Dec-07 19:28N 51°20' E 002°35'0 0.0
2016-Dec-07 18:31N 51°20' E 002°35'0 0.0
2016-Dec-07 17:23N 51°20' E 002°35'0 0.0
2016-Dec-07 16:29N 51°20' E 002°35'0 0.0
2016-Dec-07 15:31N 51°20' E 002°35'0 0.1
2016-Dec-07 14:32N 51°20' E 002°35'0 0.1
2016-Dec-07 13:32N 51°20' E 002°35'0 0.0
2016-Dec-07 12:32N 51°20' E 002°35'0 0.0
2016-Dec-07 11:33N 51°20' E 002°35'0 0.1
2016-Dec-07 10:27N 51°20' E 002°35'0 0.0
2016-Dec-07 09:24N 51°20' E 002°35'0 0.0
2016-Dec-07 08:34N 51°20' E 002°35'0 0.0
2016-Dec-07 07:32N 51°20' E 002°35'0 0.0
2016-Dec-07 06:31N 51°20' E 002°35'0 0.0
2016-Dec-07 05:30N 51°20' E 002°35'0 0.0
2016-Dec-07 04:33N 51°20' E 002°35'0 0.0
2016-Dec-07 03:31N 51°20' E 002°35'0 0.1
2016-Dec-07 02:33N 51°20' E 002°35'0 0.1
2016-Dec-07 01:28N 51°20' E 002°35'0 0.0
2016-Dec-07 00:31N 51°20' E 002°35'0 0.0
2016-Dec-06 23:31N 51°20' E 002°35'0 0.0
2016-Dec-06 22:33N 51°20' E 002°35'0 0.1
2016-Dec-06 21:28N 51°20' E 002°35'0 0.0
2016-Dec-06 20:27N 51°20' E 002°35'0 0.0
2016-Dec-06 18:33N 51°20' E 002°35'0 0.0
2016-Dec-06 17:29N 51°20' E 002°35'0 0.0
2016-Dec-06 16:31N 51°20' E 002°35'0 0.0
2016-Dec-06 15:33N 51°20' E 002°35'0 0.0
2016-Dec-06 14:33N 51°20' E 002°35'0 0.1
2016-Dec-06 13:29N 51°20' E 002°35'0 0.0
2016-Dec-06 12:32N 51°20' E 002°35'0 0.0
2016-Dec-06 11:28N 51°20' E 002°35'0 0.0
2016-Dec-06 10:27N 51°20' E 002°35'0 0.0
2016-Dec-06 09:32N 51°20' E 002°35'0 0.1
2016-Dec-06 08:33N 51°20' E 002°35'0 0.0
2016-Dec-06 07:31N 51°20' E 002°35'0 0.0
2016-Dec-06 06:27N 51°20' E 002°35'0 0.0
2016-Dec-06 05:33N 51°20' E 002°35'0 0.0
2016-Dec-06 04:33N 51°20' E 002°35'0 0.0
2016-Dec-06 03:30N 51°20' E 002°35'0 0.0
2016-Dec-06 02:31N 51°20' E 002°35'0 0.2
2016-Dec-06 01:32N 51°20' E 002°35'0 0.0
2016-Dec-06 00:33N 51°20' E 002°35'0 0.0
2016-Dec-05 23:31N 51°20' E 002°35'0 0.0
2016-Dec-05 22:31N 51°20' E 002°35'0 0.0
2016-Dec-05 21:30N 51°20' E 002°35'0 0.1
2016-Dec-05 20:32N 51°20' E 002°35'0 0.1
2016-Dec-05 19:28N 51°20' E 002°35'0 0.1
2016-Dec-05 18:30N 51°20' E 002°35'0 0.0
2016-Dec-05 17:32N 51°20' E 002°35'0 0.0
2016-Dec-05 16:27N 51°20' E 002°35'0 0.0
2016-Dec-05 15:32N 51°20' E 002°35'0 0.0
2016-Dec-05 14:27N 51°20' E 002°35'0 0.2
2016-Dec-05 13:28N 51°20' E 002°35'0 0.0
2016-Dec-05 12:32N 51°20' E 002°35'0 0.0
2016-Dec-05 11:31N 51°20' E 002°35'0 0.0
2016-Dec-05 10:32N 51°20' E 002°35'0 0.0
2016-Dec-05 09:32N 51°20' E 002°35'0 0.0
2016-Dec-05 08:32N 51°20' E 002°35'0 0.0
2016-Dec-05 07:29N 51°20' E 002°35'0 0.1
2016-Dec-05 06:03N 51°20' E 002°35'0 0.0
2016-Dec-05 05:33N 51°20' E 002°35'0 0.0
2016-Dec-05 04:29N 51°20' E 002°35'0 0.0
2016-Dec-05 03:32N 51°20' E 002°35'0 0.0
2016-Dec-05 02:26N 51°20' E 002°35'0 0.2
2016-Dec-05 01:31N 51°20' E 002°35'0 0.0
2016-Dec-05 00:33N 51°20' E 002°35'0 0.0
2016-Dec-04 23:32N 51°20' E 002°35'0 0.0
2016-Dec-04 22:32N 51°20' E 002°35'0 0.0
2016-Dec-04 21:33N 51°20' E 002°35'0 0.0
2016-Dec-04 20:28N 51°20' E 002°35'0 0.0
2016-Dec-04 19:32N 51°20' E 002°35'0 0.0
2016-Dec-04 18:32N 51°20' E 002°35'0 0.1
2016-Dec-04 17:32N 51°20' E 002°35'0 0.0
2016-Dec-04 16:33N 51°20' E 002°35'0 0.0
2016-Dec-04 15:28N 51°20' E 002°35'0 0.1
2016-Dec-04 14:32N 51°20' E 002°35'0 0.2
2016-Dec-04 13:30N 51°20' E 002°35'0 0.0
2016-Dec-04 12:25N 51°20' E 002°35'0 0.0
2016-Dec-04 11:29N 51°20' E 002°35'0 0.0
2016-Dec-04 10:31N 51°20' E 002°35'0 0.0
2016-Dec-04 08:08N 51°20' E 002°35'0 0.0
2016-Dec-04 07:23N 51°20' E 002°35'0 0.0
2016-Dec-04 06:32N 51°20' E 002°35'0 0.1
2016-Dec-04 05:23N 51°20' E 002°35'0 0.1
2016-Dec-04 04:29N 51°20' E 002°35'0 0.0
2016-Dec-04 03:33N 51°20' E 002°35'0 0.1
2016-Dec-04 02:29N 51°20' E 002°35'0 0.1
2016-Dec-04 01:23N 51°20' E 002°35'0 0.1
2016-Dec-04 00:32N 51°20' E 002°35'0 0.0
2016-Dec-03 23:29N 51°20' E 002°35'0 0.0
2016-Dec-03 22:32N 51°20' E 002°35'0 0.0
2016-Dec-03 21:29N 51°20' E 002°35'0 0.0
2016-Dec-03 20:30N 51°20' E 002°35'0 0.0
2016-Dec-03 19:26N 51°20' E 002°35'0 0.0
2016-Dec-03 18:30N 51°20' E 002°35'0 0.1
2016-Dec-03 17:29N 51°20' E 002°35'0 0.1
2016-Dec-03 16:32N 51°20' E 002°35'0 0.0
2016-Dec-03 15:33N 51°20' E 002°35'0 0.0
2016-Dec-03 14:32N 51°20' E 002°35'0 0.0
2016-Dec-03 13:29N 51°20' E 002°35'0 0.2
2016-Dec-03 12:32N 51°20' E 002°35'0 0.0
2016-Dec-03 11:33N 51°20' E 002°35'0 0.0
2016-Dec-03 10:20N 51°20' E 002°35'0 0.0
2016-Dec-03 09:33N 51°20' E 002°35'4 4.1
2016-Dec-03 08:34N 51°22' E 002°29'7 7.4
2016-Dec-03 07:33N 51°18' E 002°18'8 7.9
2016-Dec-03 06:31N 51°14' E 002°07'8 8.6
2016-Dec-03 05:34N 51°10' E 001°55'9 9.2
2016-Dec-03 04:33N 51°04' E 001°44'1110.3
2016-Dec-03 03:31N 50°57' E 001°32'108 7.6
2016-Dec-02 13:13N 50°07' W 000°60'4 6.8
2016-Dec-02 12:34N 50°06' W 001°06'8 8.0
2016-Dec-02 11:34N 50°04' W 001°18'9 9.1
2016-Dec-02 10:33N 50°01' W 001°32'1010.2
2016-Dec-02 09:34N 49°59' W 001°47'197 9.0
2016-Dec-01 11:33N 48°08' W 005°57'  
Track history (hours):
 
Tides and Currents Weather Stations Pressure Air Temp Water Temp Dewpoint Dewpoint Depression Visibility Wind Speed Wind Dir Waves Ship Positions

Nakhchivan

Last reported at 2016-Dec-10 01:08 UTC. Time now 2016-Dec-10 08:50 UTC.
Position N 52°07' E 003°23'.

Length 139 m; draft 3.5 m.

Type: Cargo ship. MMSI: 215983000.

Date/timePositionNaut miles runAvg speedWind from/ knotsBaromVisibWave heightAir tempDewpointWater temp
2016-Dec-10 01:08N 52°07' E 003°23'610.1
2016-Dec-10 00:30N 52°01' E 003°23'1010.5
2016-Dec-09 23:33N 51°51' E 003°18'9 9.4
2016-Dec-09 22:33N 51°42' E 003°18'1010.3
2016-Dec-09 21:33N 51°33' E 003°25'9 8.9
2016-Dec-09 20:33N 51°26' E 003°35'7 6.6
2016-Dec-09 19:33N 51°22' E 003°44'4 4.2
2016-Dec-09 18:34N 51°20' E 003°49'1 1.0
2016-Dec-09 17:33N 51°19' E 003°50'6 5.7
2016-Dec-09 16:33N 51°13' E 003°48'8 7.9
2016-Dec-09 15:32N 51°05' E 003°45'0 0.0
2016-Dec-09 12:29N 51°05' E 003°45'0 0.0
2016-Dec-09 11:14N 51°05' E 003°45'0 0.0
2016-Dec-09 10:30N 51°05' E 003°45'0 0.0
2016-Dec-09 09:33N 51°05' E 003°45'0 0.0
2016-Dec-09 07:19N 51°05' E 003°45'0 0.0
2016-Dec-09 06:29N 51°05' E 003°45'0 0.0
2016-Dec-09 02:15N 51°05' E 003°45'0 0.0
2016-Dec-09 01:29N 51°05' E 003°45'0 0.0
2016-Dec-09 00:17N 51°05' E 003°45'0 0.0
2016-Dec-08 23:31N 51°05' E 003°45'0 0.0
2016-Dec-08 21:22N 51°05' E 003°45'0 0.0
2016-Dec-08 20:18N 51°05' E 003°45'0 0.0
2016-Dec-08 19:23N 51°05' E 003°45'0 0.0
2016-Dec-08 18:24N 51°05' E 003°45'0 0.0
2016-Dec-08 17:32N 51°05' E 003°45'0 0.0
2016-Dec-08 16:07N 51°05' E 003°45'1 2.1
2016-Dec-08 15:34N 51°07' E 003°44'8 7.7
2016-Dec-08 14:34N 51°14' E 003°48'6 5.9
2016-Dec-08 13:34N 51°20' E 003°49'0 0.1
2016-Dec-08 12:33N 51°20' E 003°49'5 5.5
2016-Dec-08 11:33N 51°23' E 003°42'7 6.6
2016-Dec-08 10:33N 51°25' E 003°32'7 7.3
2016-Dec-08 09:33N 51°24' E 003°21'9 8.6
2016-Dec-08 08:33N 51°22' E 003°07'8 8.4
2016-Dec-08 07:33N 51°21' E 002°54'8 8.0
2016-Dec-08 06:33N 51°22' E 002°41'4 4.2
2016-Dec-08 05:33N 51°20' E 002°35'0 0.0
2016-Dec-08 04:27N 51°20' E 002°35'0 0.2
2016-Dec-08 03:32N 51°20' E 002°35'0 0.1
2016-Dec-08 02:26N 51°20' E 002°35'0 0.0
2016-Dec-08 01:33N 51°20' E 002°35'0 0.0
2016-Dec-08 00:32N 51°20' E 002°35'0 0.1
2016-Dec-07 23:32N 51°20' E 002°35'0 0.1
2016-Dec-07 22:30N 51°20' E 002°35'0 0.1
2016-Dec-07 21:33N 51°20' E 002°35'0 0.0
2016-Dec-07 20:31N 51°20' E 002°35'0 0.0
2016-Dec-07 19:28N 51°20' E 002°35'0 0.0
2016-Dec-07 18:31N 51°20' E 002°35'0 0.0
2016-Dec-07 17:23N 51°20' E 002°35'0 0.0
2016-Dec-07 16:29N 51°20' E 002°35'0 0.0
2016-Dec-07 15:31N 51°20' E 002°35'0 0.1
2016-Dec-07 14:32N 51°20' E 002°35'0 0.1
2016-Dec-07 13:32N 51°20' E 002°35'0 0.0
2016-Dec-07 12:32N 51°20' E 002°35'0 0.0
2016-Dec-07 11:33N 51°20' E 002°35'0 0.1
2016-Dec-07 10:27N 51°20' E 002°35'0 0.0
2016-Dec-07 09:24N 51°20' E 002°35'0 0.0
2016-Dec-07 08:34N 51°20' E 002°35'0 0.0
2016-Dec-07 07:32N 51°20' E 002°35'0 0.0
2016-Dec-07 06:31N 51°20' E 002°35'0 0.0
2016-Dec-07 05:30N 51°20' E 002°35'0 0.0
2016-Dec-07 04:33N 51°20' E 002°35'0 0.0
2016-Dec-07 03:31N 51°20' E 002°35'0 0.1
2016-Dec-07 02:33N 51°20' E 002°35'0 0.1
2016-Dec-07 01:28N 51°20' E 002°35'0 0.0
2016-Dec-07 00:31N 51°20' E 002°35'0 0.0
2016-Dec-06 23:31N 51°20' E 002°35'0 0.0
2016-Dec-06 22:33N 51°20' E 002°35'0 0.1
2016-Dec-06 21:28N 51°20' E 002°35'0 0.0
2016-Dec-06 20:27N 51°20' E 002°35'0 0.0
2016-Dec-06 18:33N 51°20' E 002°35'0 0.0
2016-Dec-06 17:29N 51°20' E 002°35'0 0.0
2016-Dec-06 16:31N 51°20' E 002°35'0 0.0
2016-Dec-06 15:33N 51°20' E 002°35'0 0.0
2016-Dec-06 14:33N 51°20' E 002°35'0 0.1
2016-Dec-06 13:29N 51°20' E 002°35'0 0.0
2016-Dec-06 12:32N 51°20' E 002°35'0 0.0
2016-Dec-06 11:28N 51°20' E 002°35'0 0.0
2016-Dec-06 10:27N 51°20' E 002°35'0 0.0
2016-Dec-06 09:32N 51°20' E 002°35'0 0.1
2016-Dec-06 08:33N 51°20' E 002°35'0 0.0
2016-Dec-06 07:31N 51°20' E 002°35'0 0.0
2016-Dec-06 06:27N 51°20' E 002°35'0 0.0
2016-Dec-06 05:33N 51°20' E 002°35'0 0.0
2016-Dec-06 04:33N 51°20' E 002°35'0 0.0
2016-Dec-06 03:30N 51°20' E 002°35'0 0.0
2016-Dec-06 02:31N 51°20' E 002°35'0 0.2
2016-Dec-06 01:32N 51°20' E 002°35'0 0.0
2016-Dec-06 00:33N 51°20' E 002°35'0 0.0
2016-Dec-05 23:31N 51°20' E 002°35'0 0.0
2016-Dec-05 22:31N 51°20' E 002°35'0 0.0
2016-Dec-05 21:30N 51°20' E 002°35'0 0.1
2016-Dec-05 20:32N 51°20' E 002°35'0 0.1
2016-Dec-05 19:28N 51°20' E 002°35'0 0.1
2016-Dec-05 18:30N 51°20' E 002°35'0 0.0
2016-Dec-05 17:32N 51°20' E 002°35'0 0.0
2016-Dec-05 16:27N 51°20' E 002°35'0 0.0
2016-Dec-05 15:32N 51°20' E 002°35'0 0.0
2016-Dec-05 14:27N 51°20' E 002°35'0 0.2
2016-Dec-05 13:28N 51°20' E 002°35'0 0.0
2016-Dec-05 12:32N 51°20' E 002°35'0 0.0
2016-Dec-05 11:31N 51°20' E 002°35'0 0.0
2016-Dec-05 10:32N 51°20' E 002°35'0 0.0
2016-Dec-05 09:32N 51°20' E 002°35'0 0.0
2016-Dec-05 08:32N 51°20' E 002°35'0 0.0
2016-Dec-05 07:29N 51°20' E 002°35'0 0.1
2016-Dec-05 06:03N 51°20' E 002°35'0 0.0
2016-Dec-05 05:33N 51°20' E 002°35'0 0.0
2016-Dec-05 04:29N 51°20' E 002°35'0 0.0
2016-Dec-05 03:32N 51°20' E 002°35'0 0.0
2016-Dec-05 02:26N 51°20' E 002°35'0 0.2
2016-Dec-05 01:31N 51°20' E 002°35'0 0.0
2016-Dec-05 00:33N 51°20' E 002°35'0 0.0
2016-Dec-04 23:32N 51°20' E 002°35'0 0.0
2016-Dec-04 22:32N 51°20' E 002°35'0 0.0
2016-Dec-04 21:33N 51°20' E 002°35'0 0.0
2016-Dec-04 20:28N 51°20' E 002°35'0 0.0
2016-Dec-04 19:32N 51°20' E 002°35'0 0.0
2016-Dec-04 18:32N 51°20' E 002°35'0 0.1
2016-Dec-04 17:32N 51°20' E 002°35'0 0.0
2016-Dec-04 16:33N 51°20' E 002°35'0 0.0
2016-Dec-04 15:28N 51°20' E 002°35'0 0.1
2016-Dec-04 14:32N 51°20' E 002°35'0 0.2
2016-Dec-04 13:30N 51°20' E 002°35'0 0.0
2016-Dec-04 12:25N 51°20' E 002°35'0 0.0
2016-Dec-04 11:29N 51°20' E 002°35'0 0.0
2016-Dec-04 10:31N 51°20' E 002°35'0 0.0
2016-Dec-04 08:08N 51°20' E 002°35'0 0.0
2016-Dec-04 07:23N 51°20' E 002°35'0 0.0
2016-Dec-04 06:32N 51°20' E 002°35'0 0.1
2016-Dec-04 05:23N 51°20' E 002°35'0 0.1
2016-Dec-04 04:29N 51°20' E 002°35'0 0.0
2016-Dec-04 03:33N 51°20' E 002°35'0 0.1
2016-Dec-04 02:29N 51°20' E 002°35'0 0.1
2016-Dec-04 01:23N 51°20' E 002°35'0 0.1
2016-Dec-04 00:32N 51°20' E 002°35'0 0.0
2016-Dec-03 23:29N 51°20' E 002°35'0 0.0
2016-Dec-03 22:32N 51°20' E 002°35'0 0.0
2016-Dec-03 21:29N 51°20' E 002°35'0 0.0
2016-Dec-03 20:30N 51°20' E 002°35'0 0.0
2016-Dec-03 19:26N 51°20' E 002°35'0 0.0
2016-Dec-03 18:30N 51°20' E 002°35'0 0.1
2016-Dec-03 17:29N 51°20' E 002°35'0 0.1
2016-Dec-03 16:32N 51°20' E 002°35'0 0.0
2016-Dec-03 15:33N 51°20' E 002°35'0 0.0
2016-Dec-03 14:32N 51°20' E 002°35'0 0.0
2016-Dec-03 13:29N 51°20' E 002°35'0 0.2
2016-Dec-03 12:32N 51°20' E 002°35'0 0.0
2016-Dec-03 11:33N 51°20' E 002°35'0 0.0
2016-Dec-03 10:20N 51°20' E 002°35'0 0.0
2016-Dec-03 09:33N 51°20' E 002°35'4 4.1
2016-Dec-03 08:34N 51°22' E 002°29'7 7.4
2016-Dec-03 07:33N 51°18' E 002°18'8 7.9
2016-Dec-03 06:31N 51°14' E 002°07'8 8.6
2016-Dec-03 05:34N 51°10' E 001°55'9 9.2
2016-Dec-03 04:33N 51°04' E 001°44'1110.3
2016-Dec-03 03:31N 50°57' E 001°32'108 7.6
2016-Dec-02 13:13N 50°07' W 000°60'4 6.8
2016-Dec-02 12:34N 50°06' W 001°06'8 8.0
2016-Dec-02 11:34N 50°04' W 001°18'9 9.1
2016-Dec-02 10:33N 50°01' W 001°32'1010.2
2016-Dec-02 09:34N 49°59' W 001°47'197 9.0
2016-Dec-01 11:33N 48°08' W 005°57'  

Dump ship's entire track history